.
WxDataArchive / Data Records for 2006-09-05
2006-09-04 September 2006 2006-09-06

Data Records for Tuesday, 05 September 2006

Time	Temp	Chill	HIndex	Humid	Dewpt	 Wind 	HiWind	WindDir	Rain 	Barom 
-----	----	-----	------	-----	-----	------	------	-------	-----	----- 
00:00	56.7	56.7	56.7	93	54.7	0	0	---	0.00	30.079 
00:05	56.7	56.7	56.7	93	54.7	0	0	---	0.00	30.079 
00:10	56.6	56.6	56.6	93	54.6	0	0	---	0.00	30.079 
00:15	56.5	56.5	56.5	93	54.5	0	0	---	0.00	30.081 
00:20	56.5	56.5	56.5	94	54.8	0	0	---	0.00	30.081 
00:25	56.3	56.3	56.3	94	54.6	0	0	---	0.00	30.081 
00:30	56.3	56.3	56.3	94	54.6	0	0	---	0.00	30.079 
00:35	56.2	56.2	56.2	94	54.5	0	0	---	0.00	30.079 
00:40	56.2	56.2	56.2	94	54.5	0	0	---	0.00	30.079 
00:45	56.2	56.2	56.2	94	54.5	0	0	---	0.00	30.080 
00:50	56.0	56.0	56.0	94	54.3	0	0	---	0.00	30.080 
00:55	56.0	56.0	56.0	94	54.3	0	0	---	0.00	30.080 
01:00	55.9	55.9	55.9	94	54.2	0	0	---	0.00	30.079 
01:05	55.7	55.7	55.7	94	54.0	0	0	---	0.00	30.079 
01:10	55.6	55.6	55.6	94	53.9	0	0	---	0.00	30.079 
01:15	55.6	55.6	55.6	94	53.9	0	0	---	0.00	30.079 
01:20	55.7	55.7	55.7	95	54.3	0	1	90	0.00	30.079 
01:25	55.7	55.7	55.7	95	54.3	0	0	---	0.00	30.079 
01:30	55.7	55.7	55.7	95	54.3	0	0	---	0.00	30.078 
01:35	55.6	55.6	55.6	95	54.2	0	0	---	0.00	30.078 
01:40	55.4	55.4	55.4	95	54.0	0	0	---	0.00	30.078 
01:45	55.3	55.3	55.3	95	53.9	0	0	---	0.00	30.071 
01:50	55.1	55.1	55.1	95	53.7	0	0	---	0.00	30.071 
01:55	55.1	55.1	55.1	95	53.7	0	0	---	0.00	30.071 
02:00	55.1	55.1	55.1	95	53.7	0	0	---	0.00	30.066 
02:05	55.1	55.1	55.1	95	53.7	0	0	---	0.00	30.066 
02:10	55.0	55.0	55.0	95	53.6	0	0	---	0.00	30.066 
02:15	54.8	54.8	54.8	95	53.4	0	0	---	0.00	30.067 
02:20	54.8	54.8	54.8	95	53.4	0	0	---	0.00	30.067 
02:25	54.7	54.7	54.7	95	53.3	0	0	---	0.00	30.067 
02:30	54.5	54.5	54.5	95	53.1	0	0	---	0.00	30.062 
02:35	54.5	54.5	54.5	95	53.1	0	0	---	0.00	30.062 
02:40	54.5	54.5	54.5	95	53.1	0	0	---	0.00	30.062 
02:45	54.4	54.4	54.4	95	53.0	0	0	---	0.00	30.060 
02:50	54.4	54.4	54.4	95	53.0	0	0	---	0.00	30.060 
02:55	54.4	54.4	54.4	95	53.0	0	0	---	0.00	30.060 
03:00	54.2	54.2	54.2	95	52.8	0	0	---	0.00	30.059 
03:05	54.2	54.2	54.2	95	52.8	0	0	---	0.00	30.059 
03:10	54.1	54.1	54.1	95	52.7	0	0	---	0.00	30.059 
03:15	54.1	54.1	54.1	96	53.0	0	0	---	0.00	30.056 
03:20	54.2	54.2	54.2	96	53.1	0	0	---	0.00	30.056 
03:25	54.1	54.1	54.1	96	53.0	0	0	---	0.00	30.056 
03:30	54.1	54.1	54.1	96	53.0	0	0	---	0.00	30.051 
03:35	54.1	54.1	54.1	96	53.0	0	0	---	0.00	30.051 
03:40	54.2	54.2	54.2	96	53.1	0	0	---	0.00	30.051 
03:45	54.4	54.4	54.4	96	53.3	0	0	---	0.00	30.051 
03:50	54.4	54.4	54.4	96	53.3	0	0	---	0.00	30.051 
03:55	54.4	54.4	54.4	96	53.3	0	0	---	0.00	30.051 
04:00	54.4	54.4	54.4	96	53.3	0	0	---	0.00	30.051 
04:05	54.5	54.5	54.5	96	53.4	0	0	---	0.00	30.051 
04:10	54.5	54.5	54.5	96	53.4	0	0	---	0.00	30.051 
04:15	54.5	54.5	54.5	96	53.4	0	0	---	0.00	30.050 
04:20	54.5	54.5	54.5	96	53.4	0	0	---	0.00	30.050 
04:25	54.5	54.5	54.5	96	53.4	0	0	---	0.00	30.050 
04:30	54.5	54.5	54.5	96	53.4	0	0	---	0.00	30.050 
04:35	54.4	54.4	54.4	96	53.3	0	0	---	0.00	30.050 
04:40	54.4	54.4	54.4	96	53.3	0	0	---	0.00	30.050 
04:45	54.2	54.2	54.2	96	53.1	0	0	---	0.00	30.049 
04:50	54.1	54.1	54.1	96	53.0	0	0	---	0.00	30.049 
04:55	54.1	54.1	54.1	96	53.0	0	0	---	0.00	30.049 
05:00	53.9	53.9	53.9	96	52.8	0	0	---	0.00	30.046 
05:05	53.8	53.8	53.8	96	52.7	0	0	---	0.00	30.046 
05:10	53.8	53.8	53.8	96	52.7	0	0	---	0.00	30.046 
05:15	53.6	53.6	53.6	96	52.5	0	0	---	0.00	30.046 
05:20	53.5	53.5	53.5	96	52.4	0	0	---	0.00	30.046 
05:25	53.3	53.3	53.3	96	52.2	0	0	---	0.00	30.046 
05:30	53.3	53.3	53.3	96	52.2	0	0	---	0.00	30.040 
05:35	53.2	53.2	53.2	96	52.1	0	0	---	0.00	30.040 
05:40	53.1	53.1	53.1	96	52.0	0	0	---	0.00	30.040 
05:45	53.1	53.1	53.1	96	52.0	0	0	---	0.00	30.044 
05:50	53.1	53.1	53.1	96	52.0	0	0	---	0.00	30.044 
05:55	52.9	52.9	52.9	96	51.8	0	0	---	0.00	30.044 
06:00	52.9	52.9	52.9	96	51.8	0	0	---	0.00	30.047 
06:05	52.8	52.8	52.8	96	51.7	0	0	---	0.00	30.047 
06:10	52.8	52.8	52.8	96	51.7	0	0	---	0.00	30.047 
06:15	52.8	52.8	52.8	96	51.7	0	0	---	0.00	30.049 
06:20	52.8	52.8	52.8	96	51.7	0	0	---	0.00	30.049 
06:25	52.8	52.8	52.8	96	51.7	0	0	---	0.00	30.049 
06:30	52.8	52.8	52.8	96	51.7	0	0	---	0.00	30.047 
06:35	52.8	52.8	52.8	96	51.7	0	0	---	0.00	30.047 
06:40	52.6	52.6	52.6	96	51.5	0	0	---	0.00	30.047 
06:45	52.6	52.6	52.6	96	51.5	0	0	---	0.00	30.044 
06:50	52.6	52.6	52.6	96	51.5	0	0	---	0.00	30.044 
06:55	52.6	52.6	52.6	96	51.5	0	0	---	0.00	30.044 
07:00	52.6	52.6	52.6	96	51.5	0	0	---	0.00	30.047 
07:05	52.6	52.6	52.6	96	51.5	0	0	---	0.00	30.047 
07:10	52.6	52.6	52.6	96	51.5	0	0	---	0.00	30.047 
07:15	52.6	52.6	52.6	96	51.5	0	0	---	0.00	30.054 
07:20	52.6	52.6	52.6	96	51.5	0	0	---	0.00	30.054 
07:25	52.6	52.6	52.6	96	51.5	0	0	---	0.00	30.054 
07:30	52.6	52.6	52.6	97	51.8	0	0	---	0.00	30.054 
07:35	52.8	52.8	52.8	97	52.0	0	0	---	0.00	30.054 
07:40	53.1	53.1	53.1	97	52.3	0	0	---	0.00	30.054 
07:45	53.3	53.3	53.3	97	52.5	0	0	---	0.00	30.053 
07:50	53.5	53.5	53.5	97	52.7	0	0	---	0.00	30.053 
07:55	53.8	53.8	53.8	97	53.0	0	0	---	0.00	30.053 
08:00	54.2	54.2	54.2	97	53.4	0	0	---	0.00	30.052 
08:05	54.7	54.7	54.7	97	53.9	0	0	---	0.00	30.052 
08:10	55.4	55.4	55.4	97	54.6	0	0	---	0.00	30.052 
08:15	56.0	56.0	56.0	97	55.2	0	0	---	0.00	30.055 
08:20	56.7	56.7	56.7	97	55.9	0	0	---	0.00	30.055 
08:25	57.2	57.2	57.2	97	56.4	0	0	---	0.00	30.055 
08:30	57.8	57.8	57.8	97	57.0	0	0	---	0.00	30.052 
08:35	58.6	58.6	58.6	98	58.0	0	0	---	0.00	30.052 
08:40	59.0	59.0	59.0	98	58.4	0	0	---	0.00	30.052 
08:45	59.5	59.5	59.5	98	58.9	0	0	---	0.00	30.053 
08:50	60.2	60.2	60.2	97	59.3	0	0	---	0.00	30.053 
08:55	60.7	60.7	60.7	97	59.8	0	2	90	0.00	30.053 
09:00	60.7	60.7	60.7	97	59.8	0	2	90	0.00	30.051 
09:05	61.0	61.0	61.0	96	59.8	0	0	---	0.00	30.051 
09:10	61.2	61.2	61.2	94	59.5	0	0	---	0.00	30.051 
09:15	61.3	61.3	61.3	93	59.3	0	0	---	0.00	30.053 
09:20	61.6	61.6	61.6	92	59.2	0	0	---	0.00	30.053 
09:25	62.0	62.0	62.0	92	59.6	0	1	90	0.00	30.053 
09:30	62.3	62.3	62.3	90	59.3	0	1	90	0.00	30.052 
09:35	62.9	62.9	62.9	89	59.6	0	0	---	0.00	30.052 
09:40	63.4	63.4	63.4	88	59.8	0	1	90	0.00	30.052 
09:45	63.9	63.9	63.9	86	59.6	0	0	---	0.00	30.051 
09:50	64.5	64.5	64.5	84	59.6	0	1	90	0.00	30.051 
09:55	65.2	65.2	65.2	83	59.9	0	1	90	0.00	30.051 
10:00	65.6	65.6	65.6	82	59.9	0	1	90	0.00	30.051 
10:05	66.4	66.4	66.4	81	60.4	0	1	90	0.00	30.051 
10:10	67.6	67.6	67.6	77	60.1	0	2	90	0.00	30.051 
10:15	68.3	68.3	68.3	74	59.7	1	3	90	0.00	30.052 
10:20	68.4	68.4	68.4	72	59.0	1	2	90	0.00	30.052 
10:25	68.8	68.8	68.8	71	59.0	0	1	90	0.00	30.052 
10:30	69.3	69.3	69.3	70	59.1	1	1	90	0.00	30.051 
10:35	69.8	69.8	69.8	72	60.4	0	1	90	0.00	30.051 
10:40	70.1	70.1	70.1	69	59.4	0	1	90	0.00	30.051 
10:45	70.6	70.6	70.6	69	59.9	0	1	90	0.00	30.048 
10:50	71.5	71.5	71.5	64	58.7	0	1	90	0.00	30.048 
10:55	72.1	72.1	72.1	61	57.9	0	2	90	0.00	30.048 
11:00	72.3	72.3	72.3	63	59.0	0	2	90	0.00	30.046 
11:05	72.7	72.7	72.7	59	57.5	0	1	90	0.00	30.046 
11:10	73.5	73.5	73.5	61	59.2	0	1	90	0.00	30.046 
11:15	73.9	73.9	73.9	58	58.2	0	2	90	0.00	30.047 
11:20	73.9	73.9	73.9	63	60.5	0	1	90	0.00	30.047 
11:25	73.5	73.5	73.5	56	56.8	0	2	90	0.00	30.047 
11:30	73.0	73.0	73.0	54	55.4	0	2	90	0.00	30.049 
11:35	73.0	73.0	73.0	55	55.9	1	2	90	0.00	30.049 
11:40	73.3	73.3	73.3	55	56.1	0	2	90	0.00	30.049 
11:45	73.3	73.3	73.3	58	57.6	1	2	90	0.00	30.048 
11:50	73.2	73.2	73.2	55	56.0	0	3	90	0.00	30.048 
11:55	72.7	72.7	72.7	58	57.1	0	1	45	0.00	30.048 
12:00	72.7	72.7	72.7	58	57.1	0	1	45	0.00	30.047 
12:05	72.7	72.7	72.7	56	56.1	1	2	0	0.00	30.047 
12:10	72.8	72.8	72.8	62	59.0	1	2	22	0.00	30.047 
12:15	72.7	72.7	72.7	65	60.2	0	2	22	0.00	30.045 
12:20	72.3	72.3	72.3	64	59.4	0	2	338	0.00	30.045 
12:25	72.8	72.8	72.8	64	59.9	0	2	315	0.00	30.045 
12:30	73.2	73.2	73.2	64	60.3	0	2	315	0.00	30.041 
12:35	73.0	73.0	73.0	65	60.5	0	1	315	0.00	30.041 
12:40	72.3	72.3	72.3	63	59.0	0	1	315	0.00	30.041 
12:45	72.0	72.0	72.0	63	58.7	0	1	315	0.00	30.039 
12:50	71.6	71.6	71.6	60	57.0	0	2	315	0.00	30.039 
12:55	72.1	72.1	72.1	62	58.3	0	3	292	0.00	30.039 
13:00	72.7	72.7	72.7	57	56.6	0	1	292	0.00	30.035 
13:05	73.2	73.2	73.2	59	58.0	1	4	90	0.00	30.035 
13:10	73.2	73.2	73.2	53	55.0	1	3	270	0.00	30.035 
13:15	73.3	73.3	73.3	59	58.1	0	1	270	0.00	30.030 
13:20	73.5	73.5	73.5	60	58.7	0	1	270	0.00	30.030 
13:25	73.9	73.9	73.9	59	58.7	0	2	315	0.00	30.030 
13:30	73.7	73.7	73.7	59	58.5	0	2	315	0.00	30.022 
13:35	73.5	73.5	73.5	58	57.8	0	2	315	0.00	30.022 
13:40	73.2	73.2	73.2	59	58.0	0	2	315	0.00	30.022 
13:45	73.0	73.0	73.0	59	57.8	0	2	22	0.00	30.017 
13:50	72.8	72.8	72.8	62	59.0	0	3	248	0.00	30.017 
13:55	72.8	72.8	72.8	60	58.1	0	2	338	0.00	30.017 
14:00	72.8	72.8	72.8	61	58.6	0	1	338	0.00	30.012 
14:05	73.0	73.0	73.0	60	58.3	0	2	338	0.00	30.012 
14:10	73.2	73.2	73.2	58	57.5	1	3	90	0.00	30.012 
14:15	73.3	73.3	73.3	58	57.6	0	2	90	0.00	30.007 
14:20	73.7	73.7	73.7	54	56.0	1	3	68	0.00	30.007 
14:25	74.0	74.0	74.0	53	55.8	0	1	68	0.00	30.007 
14:30	74.4	74.4	74.4	49	54.0	1	2	68	0.00	30.004 
14:35	74.9	74.9	74.9	53	56.6	1	2	90	0.00	30.004 
14:40	75.1	75.1	77.6	55	57.8	1	4	90	0.00	30.004 
14:45	75.1	75.1	77.6	54	57.3	0	2	90	0.00	30.002 
14:50	75.6	75.6	77.9	53	57.2	0	3	90	0.00	30.002 
14:55	75.8	75.8	78.0	54	57.9	1	2	0	0.00	30.002 
15:00	75.8	75.8	78.0	49	55.3	0	3	315	0.00	29.994 
15:05	75.8	75.8	78.0	50	55.8	1	2	315	0.00	29.994 
15:10	75.4	75.4	77.8	48	54.3	0	1	315	0.00	29.994 
15:15	75.1	75.1	77.5	57	58.8	0	1	315	0.00	29.987 
15:20	75.1	75.1	77.6	52	56.3	0	3	0	0.00	29.987 
15:25	75.3	75.3	77.7	52	56.4	1	3	0	0.00	29.987 
15:30	75.4	75.4	77.8	53	57.1	1	3	0	0.00	29.985 
15:35	75.4	75.4	77.8	51	56.0	1	4	112	0.00	29.985 
15:40	76.0	76.0	78.1	52	57.1	1	2	90	0.00	29.985 
15:45	76.1	76.1	78.1	52	57.2	0	2	90	0.00	29.974 
15:50	76.1	76.1	78.1	51	56.6	0	2	90	0.00	29.974 
15:55	75.6	75.6	77.9	50	55.6	1	2	90	0.00	29.974 
16:00	74.7	74.7	74.7	52	55.9	1	2	112	0.00	29.975 
16:05	74.0	74.0	74.0	54	56.3	1	3	292	0.00	29.975 
16:10	73.9	73.9	73.9	56	57.2	0	2	292	0.00	29.975 
16:15	73.7	73.7	73.7	54	56.0	0	1	292	0.00	29.977 
16:20	73.5	73.5	73.5	56	56.8	0	1	292	0.00	29.977 
16:25	73.9	73.9	73.9	57	57.7	0	1	292	0.00	29.977 
16:30	74.2	74.2	74.2	55	57.0	0	1	292	0.00	29.972 
16:35	74.6	74.6	74.6	55	57.3	0	3	292	0.00	29.972 
16:40	74.7	74.7	74.7	56	57.9	0	2	202	0.00	29.972 
16:45	75.1	75.1	77.6	56	58.3	1	3	315	0.00	29.971 
16:50	75.3	75.3	77.7	53	57.0	1	2	292	0.00	29.971 
16:55	74.9	74.9	74.9	53	56.6	0	1	292	0.00	29.971 
17:00	75.1	75.1	77.6	54	57.3	0	3	292	0.00	29.972 
17:05	75.4	75.4	77.7	55	58.1	1	3	270	0.00	29.972 
17:10	74.9	74.9	74.9	51	55.5	1	3	315	0.00	29.972 
17:15	74.7	74.7	74.7	51	55.4	1	5	248	0.00	29.972 
17:20	74.7	74.7	74.7	52	55.9	1	2	315	0.00	29.972 
17:25	74.9	74.9	74.9	50	55.0	0	2	315	0.00	29.972 
17:30	74.7	74.7	74.7	52	55.9	0	1	315	0.00	29.971 
17:35	74.0	74.0	74.0	52	55.2	0	1	315	0.00	29.971 
17:40	73.5	73.5	73.5	54	55.8	0	1	315	0.00	29.971 
17:45	73.2	73.2	73.2	56	56.5	0	1	315	0.00	29.974 
17:50	72.8	72.8	72.8	55	55.7	0	2	315	0.00	29.974 
17:55	72.0	72.0	72.0	57	55.9	2	12	315	0.00	29.974 
18:00	70.8	70.8	70.8	58	55.3	1	6	338	0.00	29.989 
18:05	70.1	70.1	70.1	58	54.6	1	3	315	0.00	29.989 
18:10	69.4	69.4	69.4	61	55.4	1	5	315	0.00	29.989 
18:15	68.1	68.1	68.1	68	57.1	2	5	315	0.00	30.009 
18:20	65.8	65.8	65.8	78	58.7	1	4	292	0.04	30.009 
18:25	64.0	64.0	64.0	83	58.7	1	4	292	0.01	30.009 
18:30	63.2	63.2	63.2	85	58.6	0	1	292	0.00	30.008 
18:35	62.7	62.7	62.7	86	58.4	0	1	292	0.00	30.008 
18:40	62.6	62.6	62.6	87	58.7	0	1	292	0.00	30.008 
18:45	62.6	62.6	62.6	86	58.3	0	2	292	0.00	30.000 
18:50	62.6	62.6	62.6	86	58.3	0	1	292	0.00	30.000 
18:55	62.6	62.6	62.6	87	58.7	0	1	292	0.00	30.000 
19:00	62.4	62.4	62.4	87	58.5	0	1	292	0.00	29.996 
19:05	62.4	62.4	62.4	86	58.2	0	2	315	0.00	29.996 
19:10	62.1	62.1	62.1	86	57.9	0	1	315	0.01	29.996 
19:15	62.0	62.0	62.0	87	58.1	0	1	315	0.00	29.983 
19:20	61.6	61.6	61.6	88	58.0	0	1	315	0.00	29.983 
19:25	61.5	61.5	61.5	88	57.9	0	1	315	0.01	29.983 
19:30	61.3	61.3	61.3	88	57.7	0	1	315	0.00	29.978 
19:35	61.2	61.2	61.2	88	57.6	0	0	---	0.00	29.978 
19:40	61.0	61.0	61.0	89	57.7	0	0	---	0.00	29.978 
19:45	60.9	60.9	60.9	89	57.6	0	1	315	0.00	29.969 
19:50	60.9	60.9	60.9	90	57.9	0	1	315	0.00	29.969 
19:55	60.9	60.9	60.9	90	57.9	0	1	315	0.00	29.969 
20:00	60.9	60.9	60.9	90	57.9	0	1	315	0.01	29.967 
20:05	60.5	60.5	60.5	89	57.2	0	1	315	0.00	29.967 
20:10	60.5	60.5	60.5	90	57.5	0	0	---	0.00	29.967 
20:15	60.4	60.4	60.4	89	57.1	0	0	---	0.00	29.966 
20:20	60.2	60.2	60.2	89	56.9	0	1	315	0.00	29.966 
20:25	60.1	60.1	60.1	88	56.5	0	0	---	0.00	29.966 
20:30	60.1	60.1	60.1	88	56.5	0	1	315	0.00	29.976 
20:35	60.1	60.1	60.1	87	56.2	0	1	315	0.00	29.976 
20:40	60.1	60.1	60.1	88	56.5	0	1	315	0.00	29.976 
20:45	60.1	60.1	60.1	88	56.5	0	1	315	0.00	29.991 
20:50	60.1	60.1	60.1	88	56.5	0	0	---	0.00	29.991 
20:55	60.1	60.1	60.1	88	56.5	0	0	---	0.00	29.991 
21:00	60.1	60.1	60.1	88	56.5	0	0	---	0.00	29.994 
21:05	60.1	60.1	60.1	88	56.5	0	1	315	0.00	29.994 
21:10	60.1	60.1	60.1	89	56.8	0	0	---	0.00	29.994 
21:15	59.9	59.9	59.9	89	56.6	0	0	---	0.00	29.990 
21:20	59.9	59.9	59.9	89	56.6	0	0	---	0.00	29.990 
21:25	59.8	59.8	59.8	89	56.5	0	0	---	0.00	29.990 
21:30	59.6	59.6	59.6	90	56.7	0	0	---	0.00	29.996 
21:35	59.5	59.5	59.5	90	56.6	0	0	---	0.00	29.996 
21:40	59.3	59.3	59.3	90	56.4	0	0	---	0.00	29.996 
21:45	59.2	59.2	59.2	90	56.3	0	0	---	0.00	30.005 
21:50	58.9	58.9	58.9	91	56.3	0	0	---	0.00	30.005 
21:55	58.7	58.7	58.7	91	56.1	0	0	---	0.00	30.005 
22:00	58.6	58.6	58.6	91	56.0	0	1	315	0.00	30.010 
22:05	58.4	58.4	58.4	92	56.1	0	1	315	0.00	30.010 
22:10	58.3	58.3	58.3	92	56.0	0	0	---	0.00	30.010 
22:15	58.3	58.3	58.3	92	56.0	0	0	---	0.00	30.015 
22:20	58.1	58.1	58.1	93	56.1	0	0	---	0.00	30.015 
22:25	58.0	58.0	58.0	93	56.0	1	3	45	0.00	30.015 
22:30	58.0	58.0	58.0	93	56.0	0	2	45	0.00	30.024 
22:35	58.0	58.0	58.0	94	56.3	0	1	45	0.00	30.024 
22:40	58.0	58.0	58.0	94	56.3	0	1	45	0.00	30.024 
22:45	58.0	58.0	58.0	94	56.3	0	2	45	0.00	30.023 
22:50	57.8	57.8	57.8	94	56.1	0	0	---	0.00	30.023 
22:55	57.8	57.8	57.8	94	56.1	0	0	---	0.00	30.023 
23:00	57.6	57.6	57.6	94	55.9	0	0	---	0.00	30.029 
23:05	57.6	57.6	57.6	94	55.9	0	0	---	0.00	30.029 
23:10	57.6	57.6	57.6	94	55.9	0	0	---	0.00	30.029 
23:15	57.5	57.5	57.5	94	55.8	0	0	---	0.00	30.024 
23:20	57.5	57.5	57.5	94	55.8	0	0	---	0.00	30.024 
23:25	57.5	57.5	57.5	94	55.8	0	0	---	0.00	30.024 
23:30	57.3	57.3	57.3	94	55.6	0	0	---	0.00	30.019 
23:35	57.6	57.6	57.6	95	56.2	0	0	---	0.00	30.019 
23:40	57.6	57.6	57.6	95	56.2	0	0	---	0.00	30.019 
23:45	57.6	57.6	57.6	95	56.2	0	1	45	0.00	30.016 
23:50	57.6	57.6	57.6	95	56.2	0	0	---	0.00	30.016 
23:55	57.6	57.6	57.6	95	56.2	0	0	---	0.00	30.016 

CoCoRaHS
IN-AL-39
A2 Web Hosting
Creative Commons License
GoDaddy
Look for:

loaded 2017-12-11 12:16:55 • last modified 2010-11-18 10:43:29
Privacy PolicyDisclaimer
• wx.awcolley.com is powered by PmWiki v.2002016 •
• all content (unless otherwise noted) © 2017 A W Colley